Time;durP1;ratioP1;P1;durP2;ratioP2;P2;SDS_P1;SDS_P2;PMS_P1;PMS_P2;Temp;Humidity;BMP_temperature;BMP_pressure;BME280_temperature;BME280_humidity;BME280_pressure;Samples;Min_cycle;Max_cycle;Signal;HPM_P1;HPM_P2
2023/02/13 00:00:21;;;;;;;;;;;;;;;14.87;100.00;101030.28;4980094;28;19922;-42
2023/02/13 00:02:46;;;;;;;;;;;;;;;14.36;100.00;101031.06;4979882;28;19961;-42
2023/02/13 00:05:11;;;;;;;;;;;;;;;14.73;100.00;101010.63;4978577;28;19964;-42
2023/02/13 00:07:36;;;;;;;;;;;;;;;14.32;100.00;101019.91;4979249;28;19957;-42
2023/02/13 00:10:02;;;;;;;;;;;;;;;14.39;100.00;101047.44;4977709;28;19921;-42
2023/02/13 00:12:27;;;;;;;;;;;;;;;15.54;100.00;101002.22;4979211;28;19922;-42
2023/02/13 00:14:53;;;;;;;;;;;;;;;15.26;100.00;100984.59;4978221;28;19922;-42
2023/02/13 00:17:18;;;;;;;;;;;;;;;16.32;100.00;100961.53;4978908;28;19921;-42
2023/02/13 00:19:43;;;;;;;;;;;;;;;17.04;100.00;100933.66;4980618;28;19929;-42
2023/02/13 00:22:08;;;;;;;;;;;;;;;17.07;100.00;100922.31;4980206;28;21017;-42
2023/02/13 00:24:34;;;;;;;;;;;;;;;17.26;100.00;100920.88;4979331;28;19921;-42
2023/02/13 00:26:59;;;;;;;;;;;;;;;17.13;100.00;100912.59;4978535;28;19922;-42
2023/02/13 00:29:24;;;;;;;;;;;;;;;16.48;100.00;100928.19;4978150;28;19921;-42
2023/02/13 00:31:49;;;;;;;;;;;;;;;15.33;100.00;100955.03;4979143;28;21043;-42
2023/02/13 00:34:15;;;;;;;;;;;;;;;15.75;100.00;100962.84;4979350;28;19922;-42
2023/02/13 00:36:40;;;;;;;;;;;;;;;16.77;100.00;100935.25;4978458;28;19944;-42
2023/02/13 00:39:05;;;;;;;;;;;;;;;15.73;100.00;100946.41;4978827;28;19921;-42
2023/02/13 00:41:30;;;;;;;;;;;;;;;15.39;100.00;100934.13;4978161;28;20708;-42
2023/02/13 00:43:56;;;;;;;;;;;;;;;16.45;100.00;100929.13;4978872;28;20427;-42
2023/02/13 00:46:21;;;;;;;;;;;;;;;15.40;100.00;100956.63;4984778;28;19924;-42
2023/02/13 00:48:46;;;;;;;;;;;;;;;15.57;100.00;100950.22;4983048;28;20028;-42
2023/02/13 00:51:11;;;;;;;;;;;;;;;15.85;100.00;100948.75;4982786;28;19922;-42
2023/02/13 00:53:37;;;;;;;;;;;;;;;17.00;100.00;100912.97;5019966;28;20311;-42
2023/02/13 00:56:03;;;;;;;;;;;;;;;17.31;100.00;100910.31;4982462;28;19964;-42
2023/02/13 00:58:28;;;;;;;;;;;;;;;17.46;100.00;100909.03;4982664;28;19926;-42
2023/02/13 01:00:53;;;;;;;;;;;;;;;17.46;100.00;100899.47;4982664;28;19940;-42
2023/02/13 01:03:19;;;;;;;;;;;;;;;17.50;100.00;100908.91;5005105;28;19930;-42
2023/02/13 01:05:44;;;;;;;;;;;;;;;17.38;100.00;100906.66;4981704;28;19928;-42
2023/02/13 01:08:10;;;;;;;;;;;;;;;17.44;100.00;100906.47;4982507;28;19918;-42
2023/02/13 01:10:36;;;;;;;;;;;;;;;17.30;100.00;100908.63;4982919;28;19929;-42
2023/02/13 01:13:01;;;;;;;;;;;;;;;17.26;100.00;100913.06;4982754;28;19981;-42
2023/02/13 01:15:26;;;;;;;;;;;;;;;17.56;100.00;100911.31;4981405;28;19925;-42
2023/02/13 01:17:53;;;;;;;;;;;;;;;16.84;100.00;100920.34;4979795;28;19964;-42
2023/02/13 01:20:18;;;;;;;;;;;;;;;17.25;100.00;100915.72;5032871;28;19924;-42
2023/02/13 01:22:44;;;;;;;;;;;;;;;16.80;100.00;100923.94;4985912;28;19917;-42
2023/02/13 01:25:09;;;;;;;;;;;;;;;17.24;100.00;100920.09;4981453;28;20008;-42
2023/02/13 01:27:36;;;;;;;;;;;;;;;17.04;100.00;100907.63;4984344;28;20553;-42
2023/02/13 01:30:02;;;;;;;;;;;;;;;15.39;100.00;100954.88;4981718;28;20432;-42
2023/02/13 01:32:27;;;;;;;;;;;;;;;15.92;100.00;100959.00;4981830;28;19928;-42
2023/02/13 01:34:52;;;;;;;;;;;;;;;16.39;100.00;100938.81;4981166;28;19917;-42
2023/02/13 01:37:18;;;;;;;;;;;;;;;15.29;100.00;100958.56;4981869;28;19925;-42
2023/02/13 01:39:43;;;;;;;;;;;;;;;15.20;100.00;100958.75;4982231;28;20000;-42
2023/02/13 01:42:12;;;;;;;;;;;;;;;16.53;100.00;100941.91;4981882;28;20057;-42
2023/02/13 01:44:52;;;;;;;;;;;;;;;15.90;100.00;100920.06;5013844;28;20570;-42
2023/02/13 01:47:20;;;;;;;;;;;;;;;16.07;100.00;100943.06;4982877;28;19988;-42
2023/02/13 01:49:45;;;;;;;;;;;;;;;16.34;100.00;100925.94;5021219;28;20282;-42
2023/02/13 01:52:11;;;;;;;;;;;;;;;16.69;100.00;100927.66;4982482;28;19922;-42
2023/02/13 01:54:36;;;;;;;;;;;;;;;15.94;100.00;100928.63;5021411;28;20409;-42
2023/02/13 01:57:03;;;;;;;;;;;;;;;15.69;100.00;100936.94;4981422;28;19980;-42
2023/02/13 01:59:30;;;;;;;;;;;;;;;16.23;100.00;100927.94;5024091;28;19917;-41
2023/02/13 02:01:55;;;;;;;;;;;;;;;16.60;100.00;100912.25;5007016;28;19921;-41
2023/02/13 02:04:21;;;;;;;;;;;;;;;16.17;100.00;100913.38;5015887;28;19943;-42
2023/02/13 02:06:48;;;;;;;;;;;;;;;15.23;100.00;100937.94;5022762;28;19921;-41
2023/02/13 02:09:15;;;;;;;;;;;;;;;15.29;100.00;100962.91;4981593;28;19933;-42
2023/02/13 02:11:42;;;;;;;;;;;;;;;15.63;100.00;100940.56;5025164;28;19922;-41
2023/02/13 02:14:07;;;;;;;;;;;;;;;14.89;100.00;100977.47;5019581;28;20000;-42
2023/02/13 02:16:33;;;;;;;;;;;;;;;14.03;100.00;100986.66;4979861;28;19937;-42
2023/02/13 02:19:00;;;;;;;;;;;;;;;15.03;100.00;100969.47;4981998;28;19922;-42
2023/02/13 02:21:28;;;;;;;;;;;;;;;14.98;100.00;100973.88;4979950;28;19914;-41
2023/02/13 02:24:12;;;;;;;;;;;;;;;14.93;100.00;100978.31;4981333;28;19975;-42
2023/02/13 02:26:37;;;;;;;;;;;;;;;14.62;100.00;100953.78;4980870;28;19918;-41
2023/02/13 02:29:10;;;;;;;;;;;;;;;14.82;100.00;100968.09;4981010;28;20371;-41
2023/02/13 02:31:54;;;;;;;;;;;;;;;13.79;100.00;100978.31;5021815;28;19921;-42
2023/02/13 02:34:25;;;;;;;;;;;;;;;14.08;100.00;100990.03;4981205;28;20863;-42
2023/02/13 02:37:16;;;;;;;;;;;;;;;14.25;100.00;100969.03;5001029;28;19921;-41
2023/02/13 02:39:43;;;;;;;;;;;;;;;13.06;100.00;100980.03;5025494;28;20007;-41
2023/02/13 02:42:17;;;;;;;;;;;;;;;13.60;100.00;100989.81;4997795;28;19960;-41
2023/02/13 02:44:44;;;;;;;;;;;;;;;14.09;100.00;100983.09;4980550;28;20387;-41
2023/02/13 02:50:19;;;;;;;;;;;;;;;13.48;100.00;100966.66;4980969;28;19925;-41
2023/02/13 02:52:50;;;;;;;;;;;;;;;13.00;100.00;100990.47;4998120;28;19925;-41
2023/02/13 02:55:21;;;;;;;;;;;;;;;14.08;100.00;100979.66;4980377;28;19921;-41
2023/02/13 03:06:33;;;;;;;;;;;;;;;14.26;100.00;100957.78;4982515;28;20275;-41
2023/02/13 03:14:38;;;;;;;;;;;;;;;13.83;100.00;100986.06;5010216;28;20325;-41
2023/02/13 03:22:42;;;;;;;;;;;;;;;12.89;100.00;100931.09;4980665;28;19925;-41
2023/02/13 03:25:13;;;;;;;;;;;;;;;13.57;100.00;100940.63;5016538;28;19922;-42
2023/02/13 03:30:26;;;;;;;;;;;;;;;13.51;100.00;100945.91;4980552;28;19976;-41
2023/02/13 03:32:54;;;;;;;;;;;;;;;13.64;100.00;100955.25;4980763;28;19924;-41
2023/02/13 03:38:11;;;;;;;;;;;;;;;13.15;100.00;100989.44;4980337;28;19972;-41
2023/02/13 03:41:17;;;;;;;;;;;;;;;14.66;100.00;100946.78;5017968;28;20012;-41
2023/02/13 03:43:31;;;;;;;;;;;;;;;14.30;100.00;100932.66;5008035;28;19929;-41
2023/02/13 03:45:57;;;;;;;;;;;;;;;15.47;100.00;100901.06;4978973;28;19922;-41
2023/02/13 03:51:11;;;;;;;;;;;;;;;14.16;100.00;100933.78;5012309;28;19924;-41
2023/02/13 03:53:37;;;;;;;;;;;;;;;14.10;100.00;100920.91;5012430;28;19921;-41
2023/02/13 04:01:32;;;;;;;;;;;;;;;13.64;100.00;100944.88;5012479;28;19953;-41
2023/02/13 04:04:00;;;;;;;;;;;;;;;14.59;100.00;100946.03;4979461;28;19918;-41
2023/02/13 04:06:29;;;;;;;;;;;;;;;14.36;100.00;100940.34;4978729;28;20028;-41
2023/02/13 04:08:54;;;;;;;;;;;;;;;13.34;100.00;100984.94;5001063;28;19928;-41
2023/02/13 04:11:34;;;;;;;;;;;;;;;13.70;100.00;100955.13;4978826;28;19925;-41
2023/02/13 04:14:00;;;;;;;;;;;;;;;13.66;100.00;100950.91;5013518;28;19933;-41
2023/02/13 04:16:29;;;;;;;;;;;;;;;14.88;100.00;100941.22;4977204;28;19922;-41
2023/02/13 04:18:55;;;;;;;;;;;;;;;14.52;100.00;100934.03;4978613;28;19976;-41
2023/02/13 04:21:20;;;;;;;;;;;;;;;12.86;100.00;100967.28;5015673;28;20553;-41
2023/02/13 04:23:45;;;;;;;;;;;;;;;14.10;100.00;100967.53;4984338;28;21086;-41
2023/02/13 04:26:13;;;;;;;;;;;;;;;13.63;100.00;100961.28;4979346;28;20398;-41
2023/02/13 04:28:38;;;;;;;;;;;;;;;13.66;100.00;100952.63;5017689;28;19959;-41
2023/02/13 04:31:03;;;;;;;;;;;;;;;12.70;100.00;100968.31;4981559;28;19988;-41
2023/02/13 04:33:29;;;;;;;;;;;;;;;14.13;100.00;100966.63;4979900;28;19941;-41
2023/02/13 04:35:55;;;;;;;;;;;;;;;13.32;100.00;100956.50;4979428;28;20526;-41
2023/02/13 04:38:20;;;;;;;;;;;;;;;12.81;100.00;100974.25;4979634;28;19926;-41
2023/02/13 04:40:45;;;;;;;;;;;;;;;14.76;100.00;100950.94;4979474;28;19932;-41
2023/02/13 04:43:10;;;;;;;;;;;;;;;13.43;100.00;100958.09;4979930;28;20028;-41
2023/02/13 04:45:35;;;;;;;;;;;;;;;14.79;100.00;100921.50;4978667;28;21675;-41
2023/02/13 04:48:01;;;;;;;;;;;;;;;13.81;100.00;100940.31;4979146;28;20589;-41
2023/02/13 04:50:26;;;;;;;;;;;;;;;14.46;100.00;100923.78;4979527;28;19921;-41
2023/02/13 04:52:52;;;;;;;;;;;;;;;12.68;100.00;100945.09;4979448;28;20013;-41
2023/02/13 04:55:17;;;;;;;;;;;;;;;13.06;100.00;100948.13;4977871;28;20478;-41
2023/02/13 04:57:42;;;;;;;;;;;;;;;15.27;100.00;100918.81;4979370;28;19926;-41
2023/02/13 05:00:08;;;;;;;;;;;;;;;15.94;100.00;100871.47;4979220;28;19996;-41
2023/02/13 05:02:33;;;;;;;;;;;;;;;15.16;100.00;100859.34;4996463;28;19960;-41
2023/02/13 05:04:58;;;;;;;;;;;;;;;14.28;100.00;100905.91;4978377;28;19989;-41
2023/02/13 05:07:23;;;;;;;;;;;;;;;14.78;100.00;100918.03;4985370;28;20445;-41
2023/02/13 05:09:49;;;;;;;;;;;;;;;15.17;100.00;100888.75;4979283;28;20434;-41
2023/02/13 05:12:14;;;;;;;;;;;;;;;15.81;100.00;100868.34;4979088;28;19968;-41
2023/02/13 05:14:39;;;;;;;;;;;;;;;14.60;100.00;100897.63;4979148;28;19933;-41
2023/02/13 05:17:04;;;;;;;;;;;;;;;14.75;100.00;100905.13;4976413;28;19933;-41
2023/02/13 05:19:30;;;;;;;;;;;;;;;15.45;100.00;100886.41;4985423;28;20391;-41
2023/02/13 05:24:39;;;;;;;;;;;;;;;15.48;100.00;100882.00;4978459;28;19925;-41
2023/02/13 05:27:04;;;;;;;;;;;;;;;15.81;100.00;100878.72;4977981;28;19918;-41
2023/02/13 05:29:29;;;;;;;;;;;;;;;15.77;100.00;100867.53;4978953;28;19926;-41
2023/02/13 05:31:56;;;;;;;;;;;;;;;14.58;100.00;100889.88;4979147;28;20048;-41
2023/02/13 05:34:21;;;;;;;;;;;;;;;15.21;100.00;100887.78;4982356;28;20286;-41
2023/02/13 05:36:47;;;;;;;;;;;;;;;14.70;100.00;100886.19;4982597;28;19918;-41
2023/02/13 05:39:12;;;;;;;;;;;;;;;13.02;100.00;100931.78;4982909;28;20468;-41
2023/02/13 05:41:37;;;;;;;;;;;;;;;14.14;100.00;100925.16;4982988;28;19917;-42
2023/02/13 05:44:03;;;;;;;;;;;;;;;14.97;100.00;100912.50;4998210;28;19921;-41
2023/02/13 05:46:28;;;;;;;;;;;;;;;15.24;100.00;100887.75;4982255;28;19922;-41
2023/02/13 05:48:53;;;;;;;;;;;;;;;15.07;100.00;100901.03;4982113;28;19917;-41
2023/02/13 05:51:19;;;;;;;;;;;;;;;14.94;100.00;100908.22;5022298;28;19929;-42
2023/02/13 05:53:44;;;;;;;;;;;;;;;14.95;100.00;100902.16;4982267;28;19976;-41
2023/02/13 05:56:09;;;;;;;;;;;;;;;15.71;100.00;100877.22;4977882;28;21241;-42
2023/02/13 05:58:34;;;;;;;;;;;;;;;15.67;100.00;100869.47;4982068;28;19953;-41
2023/02/13 06:01:00;;;;;;;;;;;;;;;15.58;100.00;100882.66;4981308;28;19917;-41
2023/02/13 06:03:26;;;;;;;;;;;;;;;15.91;100.00;100868.97;4981273;28;19918;-41
2023/02/13 06:05:51;;;;;;;;;;;;;;;16.30;100.00;100862.75;4978218;28;19924;-41
2023/02/13 06:08:17;;;;;;;;;;;;;;;15.87;100.00;100866.44;4981121;28;19925;-42
2023/02/13 06:10:42;;;;;;;;;;;;;;;15.92;100.00;100860.25;4978603;28;19925;-41
2023/02/13 06:13:07;;;;;;;;;;;;;;;16.36;100.00;100866.94;4979156;28;19945;-41
2023/02/13 06:15:32;;;;;;;;;;;;;;;16.29;100.00;100861.06;4981243;28;19918;-41
2023/02/13 06:17:58;;;;;;;;;;;;;;;14.48;100.00;100895.22;4980713;28;19922;-41
2023/02/13 06:20:23;;;;;;;;;;;;;;;15.38;100.00;100890.88;4988907;28;19968;-41
2023/02/13 06:22:51;;;;;;;;;;;;;;;15.72;100.00;100882.38;4981396;28;19921;-41
2023/02/13 06:25:16;;;;;;;;;;;;;;;15.96;100.00;100867.09;4980601;28;19993;-41
2023/02/13 06:27:41;;;;;;;;;;;;;;;15.25;100.00;100879.06;4981916;28;20649;-41
2023/02/13 06:30:07;;;;;;;;;;;;;;;15.76;100.00;100871.03;4981467;28;19921;-41
2023/02/13 06:32:32;;;;;;;;;;;;;;;15.98;100.00;100865.31;4982275;28;19999;-41
2023/02/13 06:34:57;;;;;;;;;;;;;;;14.07;100.00;100895.06;4980669;28;20016;-41
2023/02/13 06:37:23;;;;;;;;;;;;;;;15.53;100.00;100891.44;4981699;28;20283;-41
2023/02/13 06:39:48;;;;;;;;;;;;;;;15.89;100.00;100877.63;4981757;28;19940;-41
2023/02/13 06:42:13;;;;;;;;;;;;;;;15.91;100.00;100879.34;4981939;28;19963;-41
2023/02/13 06:44:38;;;;;;;;;;;;;;;16.19;100.00;100871.72;4980799;28;20596;-41
2023/02/13 06:47:03;;;;;;;;;;;;;;;16.24;100.00;100868.13;4981161;28;19918;-41
2023/02/13 06:49:29;;;;;;;;;;;;;;;16.15;100.00;100867.47;4981336;28;19985;-41
2023/02/13 06:51:54;;;;;;;;;;;;;;;16.33;100.00;100866.16;4979786;28;19964;-41
2023/02/13 06:54:20;;;;;;;;;;;;;;;16.29;100.00;100874.06;4980075;28;19957;-41
2023/02/13 06:56:45;;;;;;;;;;;;;;;16.07;100.00;100875.47;4980646;28;19948;-41
2023/02/13 06:59:10;;;;;;;;;;;;;;;15.89;100.00;100887.16;4981410;28;20364;-41
2023/02/13 07:01:35;;;;;;;;;;;;;;;16.21;100.00;100877.72;4981420;28;19917;-41
2023/02/13 07:04:01;;;;;;;;;;;;;;;15.33;100.00;100910.06;4981433;28;19917;-41
2023/02/13 07:06:26;;;;;;;;;;;;;;;15.40;100.00;100914.22;4977953;28;19925;-41
2023/02/13 07:08:54;;;;;;;;;;;;;;;15.04;100.00;100914.09;4981170;28;19928;-41
2023/02/13 07:11:19;;;;;;;;;;;;;;;14.63;100.00;100946.84;4981293;28;19918;-41
2023/02/13 07:13:45;;;;;;;;;;;;;;;15.85;100.00;100917.59;4980876;28;20660;-41
2023/02/13 07:16:10;;;;;;;;;;;;;;;15.98;100.00;100888.69;4980037;28;20291;-41
2023/02/13 07:18:35;;;;;;;;;;;;;;;16.21;100.00;100888.97;4979641;28;20012;-41
2023/02/13 07:21:00;;;;;;;;;;;;;;;14.93;100.00;100919.47;4980428;28;19918;-41
2023/02/13 07:23:26;;;;;;;;;;;;;;;15.76;100.00;100922.13;4980485;28;20008;-41
2023/02/13 07:25:51;;;;;;;;;;;;;;;16.08;100.00;100901.44;4979816;28;20000;-41
2023/02/13 07:28:16;;;;;;;;;;;;;;;16.21;100.00;100888.97;5002441;28;20606;-41
2023/02/13 07:30:41;;;;;;;;;;;;;;;16.44;100.00;100895.34;4980635;28;19917;-42
2023/02/13 07:33:07;;;;;;;;;;;;;;;16.82;100.00;100896.13;4980390;28;20064;-42
2023/02/13 07:35:32;;;;;;;;;;;;;;;16.63;100.00;100895.75;5016087;28;19945;-41
2023/02/13 07:37:59;;;;;;;;;;;;;;;16.70;100.00;100895.53;4980678;28;19922;-42
2023/02/13 07:40:24;;;;;;;;;;;;;;;16.60;100.00;100907.06;4980917;28;20597;-41
2023/02/13 07:42:49;;;;;;;;;;;;;;;16.55;100.00;100898.53;4980672;28;20048;-41
2023/02/13 07:45:15;;;;;;;;;;;;;;;16.88;100.00;100895.97;5001573;28;19918;-41
2023/02/13 07:47:40;;;;;;;;;;;;;;;16.75;100.00;100889.34;4980599;28;19917;-41
2023/02/13 07:50:06;;;;;;;;;;;;;;;16.79;100.00;100901.38;4978550;28;19953;-41
2023/02/13 07:52:32;;;;;;;;;;;;;;;17.17;100.00;100889.06;4980488;28;20016;-41
2023/02/13 07:54:57;;;;;;;;;;;;;;;16.37;100.00;100896.41;4979228;28;19918;-41
2023/02/13 07:57:22;;;;;;;;;;;;;;;16.43;100.00;100914.47;4980452;28;19922;-41
2023/02/13 07:59:47;;;;;;;;;;;;;;;17.00;100.00;100893.00;4980133;28;20580;-42
2023/02/13 08:02:13;;;;;;;;;;;;;;;16.94;100.00;100895.75;4980131;28;20395;-41
2023/02/13 08:04:39;;;;;;;;;;;;;;;17.29;100.00;100894.78;4979619;28;19917;-42
2023/02/13 08:07:04;;;;;;;;;;;;;;;16.10;100.00;100924.78;4977235;28;19971;-42
2023/02/13 08:12:13;;;;;;;;;;;;;;;17.33;100.00;100895.50;4979725;28;19983;-42
2023/02/13 08:14:38;;;;;;;;;;;;;;;14.99;100.00;100929.75;5018969;28;19917;-41
2023/02/13 08:17:04;;;;;;;;;;;;;;;16.22;100.00;100916.69;4978886;28;20359;-41
2023/02/13 08:19:29;;;;;;;;;;;;;;;15.29;100.00;100950.78;4980037;28;19953;-42
2023/02/13 08:21:54;;;;;;;;;;;;;;;13.37;100.00;100979.75;4979777;28;19961;-41
2023/02/13 08:24:19;;;;;;;;;;;;;;;15.61;100.00;100946.66;4979613;28;19921;-42
2023/02/13 08:26:45;;;;;;;;;;;;;;;16.22;100.00;100941.84;4979045;28;19917;-41
2023/02/13 08:29:10;;;;;;;;;;;;;;;16.44;100.00;100916.16;4979832;28;20383;-41
2023/02/13 08:31:35;;;;;;;;;;;;;;;15.44;100.00;100921.91;4979618;28;20494;-41
2023/02/13 08:34:01;;;;;;;;;;;;;;;17.23;100.00;100899.31;4979809;28;20374;-41
2023/02/13 08:36:26;;;;;;;;;;;;;;;15.89;100.00;100905.34;4978951;28;19918;-41
2023/02/13 08:38:51;;;;;;;;;;;;;;;15.77;100.00;100945.47;4979600;28;19922;-41
2023/02/13 08:41:17;;;;;;;;;;;;;;;16.07;100.00;100927.47;4979456;28;19976;-42
2023/02/13 08:43:43;;;;;;;;;;;;;;;17.28;100.00;100903.47;4979652;28;19914;-42
2023/02/13 08:46:08;;;;;;;;;;;;;;;15.24;100.00;100929.28;4978515;28;19914;-41
2023/02/13 08:48:33;;;;;;;;;;;;;;;16.28;100.00;100926.97;4984563;28;19925;-41
2023/02/13 08:50:58;;;;;;;;;;;;;;;16.15;100.00;100938.53;4980537;28;19992;-41
2023/02/13 08:53:23;;;;;;;;;;;;;;;15.70;100.00;100949.06;4979945;28;20004;-42
2023/02/13 08:55:52;;;;;;;;;;;;;;;14.94;100.00;100944.56;4978733;28;19976;-42
2023/02/13 08:58:18;;;;;;;;;;;;;;;14.88;100.00;100936.03;4979271;28;19926;-41
2023/02/13 09:00:43;;;;;;;;;;;;;;;15.26;100.00;100956.06;4979576;28;19918;-42
2023/02/13 09:03:08;;;;;;;;;;;;;;;17.61;100.00;100902.50;4979518;28;19929;-42
2023/02/13 09:05:34;;;;;;;;;;;;;;;16.39;100.00;100925.81;4976751;28;19918;-41
2023/02/13 09:08:01;;;;;;;;;;;;;;;17.48;100.00;100908.09;4981181;28;19922;-41
2023/02/13 09:10:26;;;;;;;;;;;;;;;16.27;100.00;100899.22;4983152;28;20604;-41
2023/02/13 09:12:52;;;;;;;;;;;;;;;15.46;100.00;100945.22;4983378;28;19918;-41
2023/02/13 09:15:17;;;;;;;;;;;;;;;14.15;100.00;100986.47;4982416;28;19922;-41
2023/02/13 09:17:42;;;;;;;;;;;;;;;13.40;100.00;100990.03;4983132;28;19981;-41
2023/02/13 09:20:08;;;;;;;;;;;;;;;14.31;100.00;100987.09;4981042;28;21157;-41
2023/02/13 09:22:33;;;;;;;;;;;;;;;15.04;100.00;100989.34;4979300;28;19984;-41
2023/02/13 09:25:02;;;;;;;;;;;;;;;13.74;100.00;100990.47;4989798;28;19918;-41
2023/02/13 09:27:28;;;;;;;;;;;;;;;14.95;100.00;100967.00;4987543;28;19922;-41
2023/02/13 09:29:53;;;;;;;;;;;;;;;15.34;100.00;100961.06;4984759;28;20406;-41
2023/02/13 09:32:18;;;;;;;;;;;;;;;15.77;100.00;100963.66;4988725;28;19971;-41
2023/02/13 09:34:43;;;;;;;;;;;;;;;15.46;100.00;100935.72;4981040;28;19928;-41
2023/02/13 09:37:09;;;;;;;;;;;;;;;14.98;100.00;100974.72;4987408;28;20008;-41
2023/02/13 09:39:34;;;;;;;;;;;;;;;15.21;100.00;100960.47;4985892;28;19925;-41
2023/02/13 09:41:59;;;;;;;;;;;;;;;16.42;100.00;100946.53;4990876;28;19918;-41
2023/02/13 09:44:34;;;;;;;;;;;;;;;16.01;100.00;100943.19;4983007;28;20009;-41
2023/02/13 09:47:01;;;;;;;;;;;;;;;13.79;100.00;100983.50;5021017;28;19945;-41
2023/02/13 09:49:27;;;;;;;;;;;;;;;15.61;100.00;100955.31;5027607;28;19929;-41
2023/02/13 09:51:53;;;;;;;;;;;;;;;17.03;100.00;100905.91;5007751;28;19926;-41
2023/02/13 09:54:18;;;;;;;;;;;;;;;14.66;100.00;100951.97;5009485;28;19926;-41
2023/02/13 09:56:48;;;;;;;;;;;;;;;16.63;100.00;100940.81;5026070;28;19914;-41
2023/02/13 09:59:34;;;;;;;;;;;;;;;16.85;100.00;100903.84;4988002;28;19964;-41
2023/02/13 10:02:18;;;;;;;;;;;;;;;17.71;100.00;100919.56;5026839;28;19918;-41
2023/02/13 10:04:46;;;;;;;;;;;;;;;16.45;100.00;100930.88;4981365;28;19976;-41
2023/02/13 10:07:22;;;;;;;;;;;;;;;18.77;100.00;100884.78;4989446;28;20509;-41
2023/02/13 10:10:01;;;;;;;;;;;;;;;16.00;100.00;100928.50;5020829;28;20614;-41
2023/02/13 10:12:26;;;;;;;;;;;;;;;17.17;100.00;100894.25;4982763;28;19917;-41
2023/02/13 10:15:10;;;;;;;;;;;;;;;18.06;100.00;100897.59;4983584;28;20752;-41
2023/02/13 10:17:39;;;;;;;;;;;;;;;16.96;100.00;100914.78;4987632;28;19922;-41
2023/02/13 10:20:06;;;;;;;;;;;;;;;16.30;100.00;100924.31;5005238;28;19927;-41
2023/02/13 10:22:33;;;;;;;;;;;;;;;16.71;100.00;100938.84;4987824;28;19918;-41
2023/02/13 10:25:09;;;;;;;;;;;;;;;17.20;100.00;100943.66;4983279;28;19928;-41
2023/02/13 10:27:37;;;;;;;;;;;;;;;17.60;100.00;100932.06;4983110;28;20872;-41
2023/02/13 10:30:11;;;;;;;;;;;;;;;15.18;100.00;100960.53;4987151;28;19957;-41
2023/02/13 10:32:45;;;;;;;;;;;;;;;15.09;100.00;100960.72;5023642;28;19917;-41
2023/02/13 10:35:23;;;;;;;;;;;;;;;16.02;100.00;100948.38;5023011;28;19925;-41
2023/02/13 10:37:50;;;;;;;;;;;;;;;15.89;100.00;100947.78;4985619;28;19922;-41
2023/02/13 10:40:16;;;;;;;;;;;;;;;14.99;100.00;100939.28;4988607;28;19976;-41
2023/02/13 10:42:45;;;;;;;;;;;;;;;15.22;100.00;100954.41;4987332;28;20532;-42
2023/02/13 10:45:28;;;;;;;;;;;;;;;17.00;100.00;100968.47;5026126;28;19922;-41
2023/02/13 10:48:01;;;;;;;;;;;;;;;18.42;100.00;100915.56;5021062;28;20298;-41
2023/02/13 10:50:33;;;;;;;;;;;;;;;15.52;100.00;100946.88;5004754;28;19921;-41
2023/02/13 10:53:01;;;;;;;;;;;;;;;14.87;100.00;100973.22;5027663;28;19917;-41
2023/02/13 10:55:30;;;;;;;;;;;;;;;15.15;100.00;100986.56;4982800;28;19928;-41
2023/02/13 10:58:13;;;;;;;;;;;;;;;15.64;100.00;100959.56;4991266;28;19921;-41
2023/02/13 11:00:39;;;;;;;;;;;;;;;15.78;100.00;100952.41;5003560;28;20016;-41
2023/02/13 11:03:04;;;;;;;;;;;;;;;17.60;100.00;100906.00;4987145;28;20009;-41
2023/02/13 11:05:36;;;;;;;;;;;;;;;15.14;100.00;100948.50;4983370;28;19922;-41
2023/02/13 11:08:02;;;;;;;;;;;;;;;16.15;100.00;100935.94;4984870;28;19926;-41
2023/02/13 11:10:27;;;;;;;;;;;;;;;16.61;100.00;100908.78;4985152;28;19921;-41
2023/02/13 11:12:52;;;;;;;;;;;;;;;18.92;100.00;100875.56;5004756;28;19951;-41
2023/02/13 11:15:31;;;;;;;;;;;;;;;16.69;100.00;100916.38;4985788;28;20009;-41
2023/02/13 11:17:57;;;;;;;;;;;;;;;16.09;100.00;100928.28;4984679;28;19922;-42
2023/02/13 11:20:30;;;;;;;;;;;;;;;16.54;100.00;100917.63;4991022;28;20023;-41
2023/02/13 11:22:56;;;;;;;;;;;;;;;16.68;100.00;100927.69;5004018;28;19928;-41
2023/02/13 11:25:25;;;;;;;;;;;;;;;16.75;100.00;100912.75;4981946;28;20333;-41
2023/02/13 11:27:51;;;;;;;;;;;;;;;15.35;100.00;100927.31;5007699;28;19921;-41
2023/02/13 11:30:31;;;;;;;;;;;;;;;15.41;100.00;100929.75;5013658;28;20398;-41
2023/02/13 11:33:06;;;;;;;;;;;;;;;16.66;100.00;100912.09;4988324;28;19925;-41
2023/02/13 11:35:35;;;;;;;;;;;;;;;16.82;100.00;100885.72;4990331;28;19945;-41
2023/02/13 11:38:17;;;;;;;;;;;;;;;17.13;100.00;100864.88;4983275;28;20592;-41
2023/02/13 11:40:46;;;;;;;;;;;;;;;16.22;100.00;100884.66;4979034;28;19948;-41
2023/02/13 11:43:27;;;;;;;;;;;;;;;15.91;100.00;100916.56;4980579;28;19991;-41
2023/02/13 11:46:01;;;;;;;;;;;;;;;17.77;100.00;100880.28;4984933;28;19988;-41
2023/02/13 11:48:27;;;;;;;;;;;;;;;15.71;100.00;100906.63;4986115;28;19917;-41
2023/02/13 11:50:52;;;;;;;;;;;;;;;16.84;100.00;100889.13;4984294;28;19922;-41
2023/02/13 11:53:18;;;;;;;;;;;;;;;16.85;100.00;100870.84;4986113;28;20437;-41
2023/02/13 11:55:44;;;;;;;;;;;;;;;16.54;100.00;100876.03;4983332;28;19925;-41
2023/02/13 11:58:09;;;;;;;;;;;;;;;16.57;100.00;100881.13;5018829;28;19949;-41
2023/02/13 12:00:38;;;;;;;;;;;;;;;16.82;100.00;100890.91;4981737;28;20620;-41
2023/02/13 12:03:23;;;;;;;;;;;;;;;16.01;100.00;100853.13;4990609;28;19917;-41
2023/02/13 12:06:02;;;;;;;;;;;;;;;17.17;100.00;100886.44;4983395;28;19957;-41
2023/02/13 12:08:28;;;;;;;;;;;;;;;15.68;100.00;100899.72;4985262;28;19929;-41
2023/02/13 12:10:53;;;;;;;;;;;;;;;16.38;100.00;100895.53;4980812;28;19921;-41
2023/02/13 12:13:20;;;;;;;;;;;;;;;15.78;100.00;100871.84;5016904;28;19929;-41
2023/02/13 12:15:45;;;;;;;;;;;;;;;17.01;100.00;100863.47;5003396;28;20042;-41
2023/02/13 12:18:25;;;;;;;;;;;;;;;16.96;100.00;100867.09;5025269;28;20737;-41
2023/02/13 12:20:51;;;;;;;;;;;;;;;18.30;100.00;100840.34;4980793;28;19928;-41
2023/02/13 12:23:22;;;;;;;;;;;;;;;17.70;100.00;100822.31;4981701;28;19914;-41
2023/02/13 12:25:51;;;;;;;;;;;;;;;18.93;100.00;100802.44;4982334;28;20052;-41
2023/02/13 12:28:18;;;;;;;;;;;;;;;19.37;100.00;100783.31;5008832;28;19940;-41
2023/02/13 12:30:57;;;;;;;;;;;;;;;18.13;100.00;100802.66;4979560;28;19933;-41
2023/02/13 12:33:41;;;;;;;;;;;;;;;17.53;100.00;100807.19;4985750;28;19928;-41
2023/02/13 12:36:12;;;;;;;;;;;;;;;17.83;100.00;100804.53;4986133;28;19921;-41
2023/02/13 12:38:45;;;;;;;;;;;;;;;16.60;100.00;100836.81;4980628;28;19968;-41
2023/02/13 12:41:18;;;;;;;;;;;;;;;16.78;100.00;100864.06;4983613;28;19922;-41
2023/02/13 12:43:51;;;;;;;;;;;;;;;17.05;100.00;100825.19;5019400;28;19917;-41
2023/02/13 12:46:21;;;;;;;;;;;;;;;19.21;100.00;100789.16;5002324;28;19921;-41
2023/02/13 12:48:52;;;;;;;;;;;;;;;19.67;100.00;100776.00;5021920;28;19922;-41
2023/02/13 12:51:36;;;;;;;;;;;;;;;20.71;100.00;100754.09;4980799;28;19922;-41
2023/02/13 12:54:08;;;;;;;;;;;;;;;20.23;99.96;100748.34;4990597;28;19924;-41
2023/02/13 12:56:33;;;;;;;;;;;;;;;18.42;100.00;100776.44;5010120;28;19921;-41
2023/02/13 12:59:01;;;;;;;;;;;;;;;19.64;100.00;100768.28;4985816;28;19922;-41
2023/02/13 13:01:26;;;;;;;;;;;;;;;17.75;100.00;100786.53;4983921;28;19930;-41
2023/02/13 13:04:02;;;;;;;;;;;;;;;19.41;100.00;100774.44;4982016;28;20318;-41
2023/02/13 13:06:34;;;;;;;;;;;;;;;19.19;100.00;100775.28;5020084;28;19972;-41
2023/02/13 13:09:05;;;;;;;;;;;;;;;18.45;100.00;100776.31;4985038;28;19976;-41
2023/02/13 13:11:45;;;;;;;;;;;;;;;18.88;100.00;100759.09;4984315;28;19933;-41